sensor_id;sensor_type;location;lat;lon;timestamp;temperature;humidity
19945;DHT22;10134;50.952;6.930;2023-05-07T00:00:22;17.30;99.90
19945;DHT22;10134;50.952;6.930;2023-05-07T00:02:50;17.30;99.90
19945;DHT22;10134;50.952;6.930;2023-05-07T00:05:17;17.30;99.90
19945;DHT22;10134;50.952;6.930;2023-05-07T00:07:45;17.30;99.90
19945;DHT22;10134;50.952;6.930;2023-05-07T00:10:12;17.30;99.90
19945;DHT22;10134;50.952;6.930;2023-05-07T00:12:40;17.30;99.90
19945;DHT22;10134;50.952;6.930;2023-05-07T00:15:08;17.30;99.90
19945;DHT22;10134;50.952;6.930;2023-05-07T00:17:36;17.30;99.90
19945;DHT22;10134;50.952;6.930;2023-05-07T00:20:05;17.30;99.90
19945;DHT22;10134;50.952;6.930;2023-05-07T00:22:32;17.30;99.90
19945;DHT22;10134;50.952;6.930;2023-05-07T00:25:00;17.20;99.90
19945;DHT22;10134;50.952;6.930;2023-05-07T00:27:27;17.20;99.90
19945;DHT22;10134;50.952;6.930;2023-05-07T00:29:54;17.20;99.90
19945;DHT22;10134;50.952;6.930;2023-05-07T00:32:22;17.20;99.90
19945;DHT22;10134;50.952;6.930;2023-05-07T00:34:49;17.20;99.90
19945;DHT22;10134;50.952;6.930;2023-05-07T00:37:18;17.20;99.90
19945;DHT22;10134;50.952;6.930;2023-05-07T00:39:45;17.20;99.90
19945;DHT22;10134;50.952;6.930;2023-05-07T00:42:12;17.20;99.90
19945;DHT22;10134;50.952;6.930;2023-05-07T00:44:40;17.20;99.90
19945;DHT22;10134;50.952;6.930;2023-05-07T00:47:07;17.20;99.90
19945;DHT22;10134;50.952;6.930;2023-05-07T00:49:44;17.20;99.90
19945;DHT22;10134;50.952;6.930;2023-05-07T00:52:16;17.20;99.90
19945;DHT22;10134;50.952;6.930;2023-05-07T00:54:44;17.20;99.90
19945;DHT22;10134;50.952;6.930;2023-05-07T00:57:12;17.20;99.90
19945;DHT22;10134;50.952;6.930;2023-05-07T00:59:39;17.20;99.90
19945;DHT22;10134;50.952;6.930;2023-05-07T01:02:07;17.20;99.90
19945;DHT22;10134;50.952;6.930;2023-05-07T01:04:35;17.20;99.90
19945;DHT22;10134;50.952;6.930;2023-05-07T01:07:05;17.20;99.90
19945;DHT22;10134;50.952;6.930;2023-05-07T01:09:32;17.20;99.90
19945;DHT22;10134;50.952;6.930;2023-05-07T01:12:03;17.20;99.90
19945;DHT22;10134;50.952;6.930;2023-05-07T01:14:31;17.20;99.90
19945;DHT22;10134;50.952;6.930;2023-05-07T01:17:00;17.20;99.90
19945;DHT22;10134;50.952;6.930;2023-05-07T01:19:29;17.20;99.90
19945;DHT22;10134;50.952;6.930;2023-05-07T01:22:03;17.20;99.90
19945;DHT22;10134;50.952;6.930;2023-05-07T01:24:36;17.20;99.90
19945;DHT22;10134;50.952;6.930;2023-05-07T01:27:05;17.10;99.90
19945;DHT22;10134;50.952;6.930;2023-05-07T01:29:34;17.10;99.90
19945;DHT22;10134;50.952;6.930;2023-05-07T01:32:01;17.10;99.90
19945;DHT22;10134;50.952;6.930;2023-05-07T01:34:31;17.10;99.90
19945;DHT22;10134;50.952;6.930;2023-05-07T01:37:00;17.10;99.90
19945;DHT22;10134;50.952;6.930;2023-05-07T01:39:29;17.00;99.90
19945;DHT22;10134;50.952;6.930;2023-05-07T01:41:57;17.00;99.90
19945;DHT22;10134;50.952;6.930;2023-05-07T01:44:27;17.00;99.90
19945;DHT22;10134;50.952;6.930;2023-05-07T01:46:54;17.00;99.90
19945;DHT22;10134;50.952;6.930;2023-05-07T01:49:22;17.00;99.90
19945;DHT22;10134;50.952;6.930;2023-05-07T01:51:50;17.00;99.90
19945;DHT22;10134;50.952;6.930;2023-05-07T01:54:18;17.00;99.90
19945;DHT22;10134;50.952;6.930;2023-05-07T01:56:45;17.00;99.90
19945;DHT22;10134;50.952;6.930;2023-05-07T01:59:15;17.00;99.90
19945;DHT22;10134;50.952;6.930;2023-05-07T02:01:42;17.10;99.90
19945;DHT22;10134;50.952;6.930;2023-05-07T02:04:10;17.10;99.90
19945;DHT22;10134;50.952;6.930;2023-05-07T02:06:38;17.10;99.90
19945;DHT22;10134;50.952;6.930;2023-05-07T02:09:07;17.00;99.90
19945;DHT22;10134;50.952;6.930;2023-05-07T02:11:37;17.00;99.90
19945;DHT22;10134;50.952;6.930;2023-05-07T02:14:05;17.00;99.90
19945;DHT22;10134;50.952;6.930;2023-05-07T02:16:32;17.00;99.90
19945;DHT22;10134;50.952;6.930;2023-05-07T02:19:00;17.00;99.90
19945;DHT22;10134;50.952;6.930;2023-05-07T02:21:27;17.00;99.90
19945;DHT22;10134;50.952;6.930;2023-05-07T02:23:57;16.90;99.90
19945;DHT22;10134;50.952;6.930;2023-05-07T02:26:24;16.90;99.90
19945;DHT22;10134;50.952;6.930;2023-05-07T02:28:53;16.90;99.90
19945;DHT22;10134;50.952;6.930;2023-05-07T02:31:21;16.90;99.90
19945;DHT22;10134;50.952;6.930;2023-05-07T02:33:48;16.90;99.90
19945;DHT22;10134;50.952;6.930;2023-05-07T02:36:16;16.80;99.90
19945;DHT22;10134;50.952;6.930;2023-05-07T02:38:52;16.80;99.90
19945;DHT22;10134;50.952;6.930;2023-05-07T02:41:20;16.80;99.90
19945;DHT22;10134;50.952;6.930;2023-05-07T02:43:47;16.80;99.90
19945;DHT22;10134;50.952;6.930;2023-05-07T02:46:15;16.80;99.90
19945;DHT22;10134;50.952;6.930;2023-05-07T02:48:47;16.80;99.90
19945;DHT22;10134;50.952;6.930;2023-05-07T02:51:14;16.80;99.90
19945;DHT22;10134;50.952;6.930;2023-05-07T02:53:43;16.80;99.90
19945;DHT22;10134;50.952;6.930;2023-05-07T02:56:11;16.80;99.90
19945;DHT22;10134;50.952;6.930;2023-05-07T02:58:38;16.80;99.90
19945;DHT22;10134;50.952;6.930;2023-05-07T03:01:09;16.80;99.90
19945;DHT22;10134;50.952;6.930;2023-05-07T03:04:09;16.80;99.90
19945;DHT22;10134;50.952;6.930;2023-05-07T03:06:37;16.70;99.90
19945;DHT22;10134;50.952;6.930;2023-05-07T03:09:05;16.70;99.90
19945;DHT22;10134;50.952;6.930;2023-05-07T03:11:32;16.70;99.90
19945;DHT22;10134;50.952;6.930;2023-05-07T03:13:59;16.70;99.90
19945;DHT22;10134;50.952;6.930;2023-05-07T03:16:27;16.70;99.90
19945;DHT22;10134;50.952;6.930;2023-05-07T03:18:55;16.70;99.90
19945;DHT22;10134;50.952;6.930;2023-05-07T03:21:22;16.70;99.90
19945;DHT22;10134;50.952;6.930;2023-05-07T03:23:49;16.70;99.90
19945;DHT22;10134;50.952;6.930;2023-05-07T03:26:17;16.70;99.90
19945;DHT22;10134;50.952;6.930;2023-05-07T03:28:45;16.70;99.90
19945;DHT22;10134;50.952;6.930;2023-05-07T03:31:15;16.70;99.90
19945;DHT22;10134;50.952;6.930;2023-05-07T03:33:52;16.70;99.90
19945;DHT22;10134;50.952;6.930;2023-05-07T03:36:20;16.60;99.90
19945;DHT22;10134;50.952;6.930;2023-05-07T03:38:48;16.60;99.90
19945;DHT22;10134;50.952;6.930;2023-05-07T03:41:19;16.60;99.90
19945;DHT22;10134;50.952;6.930;2023-05-07T03:43:47;16.60;99.90
19945;DHT22;10134;50.952;6.930;2023-05-07T03:46:15;16.60;99.90
19945;DHT22;10134;50.952;6.930;2023-05-07T03:48:42;16.60;99.90
19945;DHT22;10134;50.952;6.930;2023-05-07T03:51:11;16.60;99.90
19945;DHT22;10134;50.952;6.930;2023-05-07T03:53:38;16.60;99.90
19945;DHT22;10134;50.952;6.930;2023-05-07T03:56:05;16.50;99.90
19945;DHT22;10134;50.952;6.930;2023-05-07T03:58:36;16.50;99.90
19945;DHT22;10134;50.952;6.930;2023-05-07T04:01:09;16.50;99.90
19945;DHT22;10134;50.952;6.930;2023-05-07T04:03:37;16.50;99.90
19945;DHT22;10134;50.952;6.930;2023-05-07T04:06:04;16.50;99.90
19945;DHT22;10134;50.952;6.930;2023-05-07T04:08:34;16.50;99.90
19945;DHT22;10134;50.952;6.930;2023-05-07T04:11:03;16.50;99.90
19945;DHT22;10134;50.952;6.930;2023-05-07T04:13:32;16.50;99.90
19945;DHT22;10134;50.952;6.930;2023-05-07T04:16:03;16.50;99.90
19945;DHT22;10134;50.952;6.930;2023-05-07T04:18:32;16.50;99.90
19945;DHT22;10134;50.952;6.930;2023-05-07T04:20:59;16.50;99.90
19945;DHT22;10134;50.952;6.930;2023-05-07T04:23:27;16.50;99.90
19945;DHT22;10134;50.952;6.930;2023-05-07T04:25:56;16.50;99.90
19945;DHT22;10134;50.952;6.930;2023-05-07T04:28:39;16.50;99.90
19945;DHT22;10134;50.952;6.930;2023-05-07T04:31:07;16.50;99.90
19945;DHT22;10134;50.952;6.930;2023-05-07T04:33:36;16.50;99.90
19945;DHT22;10134;50.952;6.930;2023-05-07T04:36:05;16.50;99.90
19945;DHT22;10134;50.952;6.930;2023-05-07T04:38:38;16.60;99.90
19945;DHT22;10134;50.952;6.930;2023-05-07T04:41:06;16.60;99.90
19945;DHT22;10134;50.952;6.930;2023-05-07T04:43:38;16.60;99.90
19945;DHT22;10134;50.952;6.930;2023-05-07T04:46:05;16.60;99.90
19945;DHT22;10134;50.952;6.930;2023-05-07T04:48:33;16.70;99.90
19945;DHT22;10134;50.952;6.930;2023-05-07T04:51:02;16.70;99.90
19945;DHT22;10134;50.952;6.930;2023-05-07T04:53:29;16.70;99.90
19945;DHT22;10134;50.952;6.930;2023-05-07T04:55:57;16.70;99.90
19945;DHT22;10134;50.952;6.930;2023-05-07T04:58:30;16.70;99.90
19945;DHT22;10134;50.952;6.930;2023-05-07T05:00:59;16.70;99.90
19945;DHT22;10134;50.952;6.930;2023-05-07T05:03:28;16.70;99.90
19945;DHT22;10134;50.952;6.930;2023-05-07T05:05:55;16.70;99.90
19945;DHT22;10134;50.952;6.930;2023-05-07T05:08:25;16.70;99.90
19945;DHT22;10134;50.952;6.930;2023-05-07T05:10:53;16.70;99.90
19945;DHT22;10134;50.952;6.930;2023-05-07T05:13:20;16.80;99.90
19945;DHT22;10134;50.952;6.930;2023-05-07T05:15:48;16.80;99.90
19945;DHT22;10134;50.952;6.930;2023-05-07T05:18:16;16.80;99.90
19945;DHT22;10134;50.952;6.930;2023-05-07T05:20:45;16.80;99.90
19945;DHT22;10134;50.952;6.930;2023-05-07T05:23:12;16.80;99.90
19945;DHT22;10134;50.952;6.930;2023-05-07T05:25:39;16.90;99.90
19945;DHT22;10134;50.952;6.930;2023-05-07T05:28:10;16.80;99.90
19945;DHT22;10134;50.952;6.930;2023-05-07T05:30:37;16.90;99.90
19945;DHT22;10134;50.952;6.930;2023-05-07T05:33:04;16.90;99.90
19945;DHT22;10134;50.952;6.930;2023-05-07T05:35:32;16.90;99.90
19945;DHT22;10134;50.952;6.930;2023-05-07T05:38:03;16.90;99.90
19945;DHT22;10134;50.952;6.930;2023-05-07T05:40:32;16.90;99.90
19945;DHT22;10134;50.952;6.930;2023-05-07T05:43:00;16.90;99.90
19945;DHT22;10134;50.952;6.930;2023-05-07T05:45:28;17.00;99.90
19945;DHT22;10134;50.952;6.930;2023-05-07T05:47:56;17.00;99.90
19945;DHT22;10134;50.952;6.930;2023-05-07T05:50:25;17.00;99.90
19945;DHT22;10134;50.952;6.930;2023-05-07T05:52:53;17.10;99.90
19945;DHT22;10134;50.952;6.930;2023-05-07T05:55:21;17.10;99.90
19945;DHT22;10134;50.952;6.930;2023-05-07T05:57:49;17.10;99.90
19945;DHT22;10134;50.952;6.930;2023-05-07T06:00:18;17.10;99.90
19945;DHT22;10134;50.952;6.930;2023-05-07T06:02:45;17.10;99.90
19945;DHT22;10134;50.952;6.930;2023-05-07T06:05:19;17.10;99.90
19945;DHT22;10134;50.952;6.930;2023-05-07T06:07:49;17.20;99.90
19945;DHT22;10134;50.952;6.930;2023-05-07T06:10:17;17.20;99.90
19945;DHT22;10134;50.952;6.930;2023-05-07T06:12:45;17.20;99.90
19945;DHT22;10134;50.952;6.930;2023-05-07T06:15:13;17.20;99.90
19945;DHT22;10134;50.952;6.930;2023-05-07T06:17:41;17.20;99.90
19945;DHT22;10134;50.952;6.930;2023-05-07T06:20:10;17.30;99.90
19945;DHT22;10134;50.952;6.930;2023-05-07T06:22:39;17.30;99.90
19945;DHT22;10134;50.952;6.930;2023-05-07T06:25:08;17.30;99.90
19945;DHT22;10134;50.952;6.930;2023-05-07T06:27:36;17.30;99.90
19945;DHT22;10134;50.952;6.930;2023-05-07T06:30:04;17.30;99.90
19945;DHT22;10134;50.952;6.930;2023-05-07T06:32:31;17.40;99.90
19945;DHT22;10134;50.952;6.930;2023-05-07T06:34:59;17.40;99.90
19945;DHT22;10134;50.952;6.930;2023-05-07T06:37:27;17.50;99.90
19945;DHT22;10134;50.952;6.930;2023-05-07T06:39:58;17.50;99.90
19945;DHT22;10134;50.952;6.930;2023-05-07T06:42:27;17.50;99.90
19945;DHT22;10134;50.952;6.930;2023-05-07T06:44:58;17.60;99.90
19945;DHT22;10134;50.952;6.930;2023-05-07T06:47:29;17.60;99.90
19945;DHT22;10134;50.952;6.930;2023-05-07T06:49:56;17.60;99.90
19945;DHT22;10134;50.952;6.930;2023-05-07T06:52:27;17.70;99.90
19945;DHT22;10134;50.952;6.930;2023-05-07T06:54:55;17.70;99.90
19945;DHT22;10134;50.952;6.930;2023-05-07T06:57:24;17.70;99.90
19945;DHT22;10134;50.952;6.930;2023-05-07T06:59:51;17.70;99.90
19945;DHT22;10134;50.952;6.930;2023-05-07T07:02:20;17.80;99.90
19945;DHT22;10134;50.952;6.930;2023-05-07T07:04:49;17.80;99.90
19945;DHT22;10134;50.952;6.930;2023-05-07T07:07:16;17.80;99.90
19945;DHT22;10134;50.952;6.930;2023-05-07T07:09:46;17.80;99.90
19945;DHT22;10134;50.952;6.930;2023-05-07T07:12:16;17.80;99.90
19945;DHT22;10134;50.952;6.930;2023-05-07T07:14:44;17.90;99.90
19945;DHT22;10134;50.952;6.930;2023-05-07T07:17:12;17.90;99.90
19945;DHT22;10134;50.952;6.930;2023-05-07T07:19:39;17.90;99.90
19945;DHT22;10134;50.952;6.930;2023-05-07T07:22:07;17.90;99.90
19945;DHT22;10134;50.952;6.930;2023-05-07T07:24:35;18.00;99.90
19945;DHT22;10134;50.952;6.930;2023-05-07T07:27:05;18.00;99.90
19945;DHT22;10134;50.952;6.930;2023-05-07T07:29:34;18.00;99.90
19945;DHT22;10134;50.952;6.930;2023-05-07T07:32:02;18.10;99.90
19945;DHT22;10134;50.952;6.930;2023-05-07T07:34:29;18.10;99.90
19945;DHT22;10134;50.952;6.930;2023-05-07T07:36:57;18.10;99.90
19945;DHT22;10134;50.952;6.930;2023-05-07T07:39:25;18.20;99.90
19945;DHT22;10134;50.952;6.930;2023-05-07T07:41:55;18.20;99.90
19945;DHT22;10134;50.952;6.930;2023-05-07T07:44:23;18.20;99.90
19945;DHT22;10134;50.952;6.930;2023-05-07T07:46:56;18.30;99.90
19945;DHT22;10134;50.952;6.930;2023-05-07T07:49:25;18.20;99.90
19945;DHT22;10134;50.952;6.930;2023-05-07T07:51:54;18.30;99.90
19945;DHT22;10134;50.952;6.930;2023-05-07T07:54:23;18.30;99.90
19945;DHT22;10134;50.952;6.930;2023-05-07T07:56:51;18.40;99.90
19945;DHT22;10134;50.952;6.930;2023-05-07T07:59:18;18.40;99.90
19945;DHT22;10134;50.952;6.930;2023-05-07T08:01:47;18.40;99.90
19945;DHT22;10134;50.952;6.930;2023-05-07T08:04:20;18.40;99.90
19945;DHT22;10134;50.952;6.930;2023-05-07T08:06:48;18.40;99.90
19945;DHT22;10134;50.952;6.930;2023-05-07T08:09:16;18.50;99.90
19945;DHT22;10134;50.952;6.930;2023-05-07T08:11:44;18.50;99.90
19945;DHT22;10134;50.952;6.930;2023-05-07T08:14:11;18.60;99.90
19945;DHT22;10134;50.952;6.930;2023-05-07T08:16:39;18.60;99.90
19945;DHT22;10134;50.952;6.930;2023-05-07T08:19:07;18.60;99.90
19945;DHT22;10134;50.952;6.930;2023-05-07T08:21:38;18.70;99.90
19945;DHT22;10134;50.952;6.930;2023-05-07T08:24:08;18.70;99.90
19945;DHT22;10134;50.952;6.930;2023-05-07T08:26:36;18.70;99.90
19945;DHT22;10134;50.952;6.930;2023-05-07T08:29:07;18.80;99.90
19945;DHT22;10134;50.952;6.930;2023-05-07T08:31:35;18.80;99.90
19945;DHT22;10134;50.952;6.930;2023-05-07T08:34:03;18.80;99.90
19945;DHT22;10134;50.952;6.930;2023-05-07T08:36:30;18.90;99.90
19945;DHT22;10134;50.952;6.930;2023-05-07T08:38:59;18.90;99.90
19945;DHT22;10134;50.952;6.930;2023-05-07T08:41:27;18.90;99.90
19945;DHT22;10134;50.952;6.930;2023-05-07T08:43:58;19.00;99.90
19945;DHT22;10134;50.952;6.930;2023-05-07T08:46:31;19.00;99.90
19945;DHT22;10134;50.952;6.930;2023-05-07T08:48:59;19.10;99.90
19945;DHT22;10134;50.952;6.930;2023-05-07T08:51:27;19.10;99.90
19945;DHT22;10134;50.952;6.930;2023-05-07T08:53:55;19.10;99.90
19945;DHT22;10134;50.952;6.930;2023-05-07T08:56:27;19.20;99.90
19945;DHT22;10134;50.952;6.930;2023-05-07T08:58:55;19.20;99.90
19945;DHT22;10134;50.952;6.930;2023-05-07T09:01:27;19.30;99.90
19945;DHT22;10134;50.952;6.930;2023-05-07T09:03:57;19.30;99.90
19945;DHT22;10134;50.952;6.930;2023-05-07T09:06:26;19.30;99.90
19945;DHT22;10134;50.952;6.930;2023-05-07T09:08:54;19.40;99.90
19945;DHT22;10134;50.952;6.930;2023-05-07T09:11:25;19.40;99.90
19945;DHT22;10134;50.952;6.930;2023-05-07T09:13:55;19.40;99.90
19945;DHT22;10134;50.952;6.930;2023-05-07T09:16:25;19.50;99.90
19945;DHT22;10134;50.952;6.930;2023-05-07T09:18:54;19.50;99.90
19945;DHT22;10134;50.952;6.930;2023-05-07T09:21:22;19.50;99.90
19945;DHT22;10134;50.952;6.930;2023-05-07T09:23:54;19.60;99.90
19945;DHT22;10134;50.952;6.930;2023-05-07T09:26:26;19.60;99.90
19945;DHT22;10134;50.952;6.930;2023-05-07T09:28:55;19.70;99.90
19945;DHT22;10134;50.952;6.930;2023-05-07T09:31:23;19.70;99.90
19945;DHT22;10134;50.952;6.930;2023-05-07T09:33:53;19.70;99.90
19945;DHT22;10134;50.952;6.930;2023-05-07T09:36:24;19.80;99.90
19945;DHT22;10134;50.952;6.930;2023-05-07T09:38:51;19.80;99.90
19945;DHT22;10134;50.952;6.930;2023-05-07T09:41:19;19.90;99.90
19945;DHT22;10134;50.952;6.930;2023-05-07T09:43:55;19.90;99.90
19945;DHT22;10134;50.952;6.930;2023-05-07T09:46:30;20.00;99.90
19945;DHT22;10134;50.952;6.930;2023-05-07T09:49:02;20.00;99.90
19945;DHT22;10134;50.952;6.930;2023-05-07T09:51:43;20.00;99.90
19945;DHT22;10134;50.952;6.930;2023-05-07T09:54:12;20.10;99.90
19945;DHT22;10134;50.952;6.930;2023-05-07T09:56:48;20.10;99.90
19945;DHT22;10134;50.952;6.930;2023-05-07T09:59:18;20.10;99.90
19945;DHT22;10134;50.952;6.930;2023-05-07T10:01:48;20.20;99.90
19945;DHT22;10134;50.952;6.930;2023-05-07T10:04:16;20.20;99.90
19945;DHT22;10134;50.952;6.930;2023-05-07T10:06:46;20.30;99.90
19945;DHT22;10134;50.952;6.930;2023-05-07T10:09:14;20.30;99.90
19945;DHT22;10134;50.952;6.930;2023-05-07T10:11:42;20.30;99.90
19945;DHT22;10134;50.952;6.930;2023-05-07T10:14:11;20.30;99.90
19945;DHT22;10134;50.952;6.930;2023-05-07T10:16:41;20.40;99.90
19945;DHT22;10134;50.952;6.930;2023-05-07T10:19:13;20.40;99.90
19945;DHT22;10134;50.952;6.930;2023-05-07T10:21:51;20.40;99.90
19945;DHT22;10134;50.952;6.930;2023-05-07T10:24:25;20.50;99.90
19945;DHT22;10134;50.952;6.930;2023-05-07T10:26:53;20.50;99.90
19945;DHT22;10134;50.952;6.930;2023-05-07T10:29:42;20.60;99.90
19945;DHT22;10134;50.952;6.930;2023-05-07T10:32:45;20.60;99.90
19945;DHT22;10134;50.952;6.930;2023-05-07T10:35:24;20.70;99.90
19945;DHT22;10134;50.952;6.930;2023-05-07T10:37:53;20.80;99.90
19945;DHT22;10134;50.952;6.930;2023-05-07T10:40:23;20.80;99.90
19945;DHT22;10134;50.952;6.930;2023-05-07T10:43:03;20.90;99.90
19945;DHT22;10134;50.952;6.930;2023-05-07T10:45:43;20.90;99.90
19945;DHT22;10134;50.952;6.930;2023-05-07T10:48:31;21.00;99.90
19945;DHT22;10134;50.952;6.930;2023-05-07T10:51:19;21.10;99.90
19945;DHT22;10134;50.952;6.930;2023-05-07T10:56:44;21.20;99.90
19945;DHT22;10134;50.952;6.930;2023-05-07T11:02:02;21.30;99.90
19945;DHT22;10134;50.952;6.930;2023-05-07T11:04:40;21.40;99.90
19945;DHT22;10134;50.952;6.930;2023-05-07T11:07:32;21.50;99.90
19945;DHT22;10134;50.952;6.930;2023-05-07T11:10:05;21.50;99.90
19945;DHT22;10134;50.952;6.930;2023-05-07T11:12:53;21.60;99.90
19945;DHT22;10134;50.952;6.930;2023-05-07T11:15:35;21.70;99.90
19945;DHT22;10134;50.952;6.930;2023-05-07T11:18:05;21.70;99.90
19945;DHT22;10134;50.952;6.930;2023-05-07T11:20:54;21.80;99.90
19945;DHT22;10134;50.952;6.930;2023-05-07T11:26:14;21.90;99.90
19945;DHT22;10134;50.952;6.930;2023-05-07T11:28:43;21.90;99.90
19945;DHT22;10134;50.952;6.930;2023-05-07T11:31:11;22.00;99.90
19945;DHT22;10134;50.952;6.930;2023-05-07T11:33:40;22.00;99.90
19945;DHT22;10134;50.952;6.930;2023-05-07T11:36:12;22.00;99.90
19945;DHT22;10134;50.952;6.930;2023-05-07T11:38:45;22.00;99.90
19945;DHT22;10134;50.952;6.930;2023-05-07T11:41:12;22.00;99.90
19945;DHT22;10134;50.952;6.930;2023-05-07T11:43:54;22.10;99.90
19945;DHT22;10134;50.952;6.930;2023-05-07T11:46:23;22.10;99.90
19945;DHT22;10134;50.952;6.930;2023-05-07T11:48:50;22.10;99.90
19945;DHT22;10134;50.952;6.930;2023-05-07T11:51:24;22.10;99.20
19945;DHT22;10134;50.952;6.930;2023-05-07T11:53:53;22.10;98.80
19945;DHT22;10134;50.952;6.930;2023-05-07T11:56:23;22.10;99.00
19945;DHT22;10134;50.952;6.930;2023-05-07T11:58:50;22.10;98.70
19945;DHT22;10134;50.952;6.930;2023-05-07T12:01:19;22.10;98.50
19945;DHT22;10134;50.952;6.930;2023-05-07T12:03:46;22.10;98.20
19945;DHT22;10134;50.952;6.930;2023-05-07T12:06:15;22.10;97.60
19945;DHT22;10134;50.952;6.930;2023-05-07T12:08:45;22.10;97.50
19945;DHT22;10134;50.952;6.930;2023-05-07T12:11:23;22.10;97.50
19945;DHT22;10134;50.952;6.930;2023-05-07T12:13:51;22.10;97.60
19945;DHT22;10134;50.952;6.930;2023-05-07T12:16:20;22.10;97.50
19945;DHT22;10134;50.952;6.930;2023-05-07T12:18:48;22.10;97.70
19945;DHT22;10134;50.952;6.930;2023-05-07T12:21:17;22.10;97.80
19945;DHT22;10134;50.952;6.930;2023-05-07T12:23:45;22.10;97.70
19945;DHT22;10134;50.952;6.930;2023-05-07T12:26:12;22.20;97.60
19945;DHT22;10134;50.952;6.930;2023-05-07T12:28:39;22.20;97.50
19945;DHT22;10134;50.952;6.930;2023-05-07T12:31:07;22.20;97.80
19945;DHT22;10134;50.952;6.930;2023-05-07T12:33:35;22.20;97.70
19945;DHT22;10134;50.952;6.930;2023-05-07T12:36:06;22.20;97.40
19945;DHT22;10134;50.952;6.930;2023-05-07T12:38:36;22.20;97.20
19945;DHT22;10134;50.952;6.930;2023-05-07T12:41:05;22.20;96.90
19945;DHT22;10134;50.952;6.930;2023-05-07T12:43:34;22.20;96.90
19945;DHT22;10134;50.952;6.930;2023-05-07T12:46:04;22.20;97.00
19945;DHT22;10134;50.952;6.930;2023-05-07T12:48:32;22.20;97.00
19945;DHT22;10134;50.952;6.930;2023-05-07T12:51:01;22.20;96.80
19945;DHT22;10134;50.952;6.930;2023-05-07T12:53:30;22.20;96.70
19945;DHT22;10134;50.952;6.930;2023-05-07T12:55:59;22.20;96.70
19945;DHT22;10134;50.952;6.930;2023-05-07T12:58:29;22.20;96.70
19945;DHT22;10134;50.952;6.930;2023-05-07T13:00:58;22.20;96.80
19945;DHT22;10134;50.952;6.930;2023-05-07T13:03:28;22.20;96.80
19945;DHT22;10134;50.952;6.930;2023-05-07T13:05:58;22.20;96.90
19945;DHT22;10134;50.952;6.930;2023-05-07T13:08:28;22.20;97.00
19945;DHT22;10134;50.952;6.930;2023-05-07T13:10:58;22.20;97.00
19945;DHT22;10134;50.952;6.930;2023-05-07T13:13:25;22.10;97.10
19945;DHT22;10134;50.952;6.930;2023-05-07T13:15:55;22.10;97.40
19945;DHT22;10134;50.952;6.930;2023-05-07T13:18:24;22.10;97.80
19945;DHT22;10134;50.952;6.930;2023-05-07T13:20:53;22.10;98.30
19945;DHT22;10134;50.952;6.930;2023-05-07T13:23:20;22.10;99.00
19945;DHT22;10134;50.952;6.930;2023-05-07T13:25:48;22.10;99.80
19945;DHT22;10134;50.952;6.930;2023-05-07T13:28:16;22.10;99.90
19945;DHT22;10134;50.952;6.930;2023-05-07T13:30:44;22.10;99.90
19945;DHT22;10134;50.952;6.930;2023-05-07T13:33:12;22.10;99.90
19945;DHT22;10134;50.952;6.930;2023-05-07T13:35:39;22.10;99.90
19945;DHT22;10134;50.952;6.930;2023-05-07T13:38:07;22.10;99.90
19945;DHT22;10134;50.952;6.930;2023-05-07T13:40:34;22.10;99.90
19945;DHT22;10134;50.952;6.930;2023-05-07T13:43:01;22.10;99.90
19945;DHT22;10134;50.952;6.930;2023-05-07T13:45:29;22.10;99.90
19945;DHT22;10134;50.952;6.930;2023-05-07T13:47:57;22.10;99.90
19945;DHT22;10134;50.952;6.930;2023-05-07T13:50:25;22.10;99.90
19945;DHT22;10134;50.952;6.930;2023-05-07T13:52:54;22.10;99.90
19945;DHT22;10134;50.952;6.930;2023-05-07T13:55:22;22.10;99.90
19945;DHT22;10134;50.952;6.930;2023-05-07T13:57:57;22.10;99.90
19945;DHT22;10134;50.952;6.930;2023-05-07T14:00:26;22.10;99.90
19945;DHT22;10134;50.952;6.930;2023-05-07T14:02:54;22.10;99.90
19945;DHT22;10134;50.952;6.930;2023-05-07T14:05:22;22.10;99.90
19945;DHT22;10134;50.952;6.930;2023-05-07T14:07:57;22.10;99.90
19945;DHT22;10134;50.952;6.930;2023-05-07T14:10:24;22.10;99.90
19945;DHT22;10134;50.952;6.930;2023-05-07T14:12:52;22.10;99.90
19945;DHT22;10134;50.952;6.930;2023-05-07T14:15:20;22.10;99.90
19945;DHT22;10134;50.952;6.930;2023-05-07T14:17:47;22.10;99.90
19945;DHT22;10134;50.952;6.930;2023-05-07T14:20:14;22.10;99.90
19945;DHT22;10134;50.952;6.930;2023-05-07T14:22:42;22.20;99.90
19945;DHT22;10134;50.952;6.930;2023-05-07T14:25:09;22.20;99.90
19945;DHT22;10134;50.952;6.930;2023-05-07T14:27:37;22.20;99.90
19945;DHT22;10134;50.952;6.930;2023-05-07T14:30:05;22.20;99.90
19945;DHT22;10134;50.952;6.930;2023-05-07T14:32:33;22.10;99.90
19945;DHT22;10134;50.952;6.930;2023-05-07T14:35:00;22.10;99.90
19945;DHT22;10134;50.952;6.930;2023-05-07T14:37:27;22.00;99.90
19945;DHT22;10134;50.952;6.930;2023-05-07T14:39:55;22.00;99.90
19945;DHT22;10134;50.952;6.930;2023-05-07T14:42:22;22.00;99.90
19945;DHT22;10134;50.952;6.930;2023-05-07T14:44:49;22.00;99.90
19945;DHT22;10134;50.952;6.930;2023-05-07T14:47:17;21.90;99.90
19945;DHT22;10134;50.952;6.930;2023-05-07T14:49:46;21.90;99.90
19945;DHT22;10134;50.952;6.930;2023-05-07T14:52:13;21.90;99.90
19945;DHT22;10134;50.952;6.930;2023-05-07T14:54:40;21.90;99.90
19945;DHT22;10134;50.952;6.930;2023-05-07T14:57:10;21.90;99.90
19945;DHT22;10134;50.952;6.930;2023-05-07T14:59:38;21.90;99.90
19945;DHT22;10134;50.952;6.930;2023-05-07T15:02:06;21.90;99.90
19945;DHT22;10134;50.952;6.930;2023-05-07T15:04:36;21.90;99.90
19945;DHT22;10134;50.952;6.930;2023-05-07T15:07:05;21.90;99.90
19945;DHT22;10134;50.952;6.930;2023-05-07T15:09:32;21.90;99.90
19945;DHT22;10134;50.952;6.930;2023-05-07T15:11:59;21.90;99.90
19945;DHT22;10134;50.952;6.930;2023-05-07T15:14:27;21.90;99.90
19945;DHT22;10134;50.952;6.930;2023-05-07T15:16:54;21.90;99.90
19945;DHT22;10134;50.952;6.930;2023-05-07T15:19:22;21.90;99.90
19945;DHT22;10134;50.952;6.930;2023-05-07T15:21:51;21.90;99.90
19945;DHT22;10134;50.952;6.930;2023-05-07T15:24:19;21.90;99.90
19945;DHT22;10134;50.952;6.930;2023-05-07T15:26:46;22.00;99.90
19945;DHT22;10134;50.952;6.930;2023-05-07T15:29:13;22.00;99.90
19945;DHT22;10134;50.952;6.930;2023-05-07T15:31:41;21.90;99.90
19945;DHT22;10134;50.952;6.930;2023-05-07T15:34:08;22.00;99.90
19945;DHT22;10134;50.952;6.930;2023-05-07T15:36:36;22.00;99.90
19945;DHT22;10134;50.952;6.930;2023-05-07T15:39:03;22.00;99.90
19945;DHT22;10134;50.952;6.930;2023-05-07T15:41:31;22.00;99.90
19945;DHT22;10134;50.952;6.930;2023-05-07T15:43:59;22.00;99.90
19945;DHT22;10134;50.952;6.930;2023-05-07T15:46:26;22.00;99.90
19945;DHT22;10134;50.952;6.930;2023-05-07T15:48:54;22.00;99.90
19945;DHT22;10134;50.952;6.930;2023-05-07T15:51:23;22.00;99.90